sensor_id;sensor_type;location;lat;lon;timestamp;noise_LAeq;noise_LA_min;noise_LA_max;noise_LA01;noise_LA95
82857;Laerm;72620;47.774;9.620;2023-12-20T00:01:09;46.95;45.63;50.26;;
82857;Laerm;72620;47.774;9.620;2023-12-20T00:03:36;47.58;45.65;57.27;;
82857;Laerm;72620;47.774;9.620;2023-12-20T00:06:09;53.51;45.80;67.00;;
82857;Laerm;72620;47.774;9.620;2023-12-20T00:08:37;49.41;45.65;60.22;;
82857;Laerm;72620;47.774;9.620;2023-12-20T00:11:04;54.12;45.54;69.69;;
82857;Laerm;72620;47.774;9.620;2023-12-20T00:13:31;50.48;45.58;62.36;;
82857;Laerm;72620;47.774;9.620;2023-12-20T00:15:59;47.00;45.61;49.45;;
82857;Laerm;72620;47.774;9.620;2023-12-20T00:18:26;49.22;45.79;60.58;;
82857;Laerm;72620;47.774;9.620;2023-12-20T00:20:53;52.42;45.64;66.75;;
82857;Laerm;72620;47.774;9.620;2023-12-20T00:23:20;47.23;45.83;50.75;;
82857;Laerm;72620;47.774;9.620;2023-12-20T00:25:47;53.17;46.10;68.96;;
82857;Laerm;72620;47.774;9.620;2023-12-20T00:28:15;50.20;46.65;62.63;;
82857;Laerm;72620;47.774;9.620;2023-12-20T00:30:42;53.71;47.90;66.65;;
82857;Laerm;72620;47.774;9.620;2023-12-20T00:33:09;52.79;50.69;55.65;;
82857;Laerm;72620;47.774;9.620;2023-12-20T00:35:36;49.75;47.87;53.90;;
82857;Laerm;72620;47.774;9.620;2023-12-20T00:38:03;48.47;47.20;50.80;;
82857;Laerm;72620;47.774;9.620;2023-12-20T00:40:32;48.12;46.83;50.10;;
82857;Laerm;72620;47.774;9.620;2023-12-20T00:43:00;48.00;46.77;49.83;;
82857;Laerm;72620;47.774;9.620;2023-12-20T00:45:27;50.87;46.77;62.79;;
82857;Laerm;72620;47.774;9.620;2023-12-20T00:47:55;47.94;46.82;50.40;;
82857;Laerm;72620;47.774;9.620;2023-12-20T00:50:22;51.01;46.73;64.09;;
82857;Laerm;72620;47.774;9.620;2023-12-20T00:52:52;48.13;45.74;50.63;;
82857;Laerm;72620;47.774;9.620;2023-12-20T00:55:21;51.55;45.37;63.73;;
82857;Laerm;72620;47.774;9.620;2023-12-20T00:57:48;46.86;45.17;49.21;;
82857;Laerm;72620;47.774;9.620;2023-12-20T01:00:17;46.85;45.37;49.02;;
82857;Laerm;72620;47.774;9.620;2023-12-20T01:02:44;55.52;45.43;71.09;;
82857;Laerm;72620;47.774;9.620;2023-12-20T01:05:13;46.87;45.60;48.96;;
82857;Laerm;72620;47.774;9.620;2023-12-20T01:07:40;46.89;45.47;50.79;;
82857;Laerm;72620;47.774;9.620;2023-12-20T01:10:08;46.91;45.63;53.70;;
82857;Laerm;72620;47.774;9.620;2023-12-20T01:12:36;46.90;45.54;48.81;;
82857;Laerm;72620;47.774;9.620;2023-12-20T01:15:04;55.47;45.35;68.67;;
82857;Laerm;72620;47.774;9.620;2023-12-20T01:17:31;46.98;45.53;49.27;;
82857;Laerm;72620;47.774;9.620;2023-12-20T01:19:58;52.68;45.41;68.21;;
82857;Laerm;72620;47.774;9.620;2023-12-20T01:22:26;46.91;45.57;53.46;;
82857;Laerm;72620;47.774;9.620;2023-12-20T01:24:53;52.19;45.56;66.91;;
82857;Laerm;72620;47.774;9.620;2023-12-20T01:27:20;55.35;45.54;68.66;;
82857;Laerm;72620;47.774;9.620;2023-12-20T01:29:47;46.97;45.58;48.84;;
82857;Laerm;72620;47.774;9.620;2023-12-20T01:32:14;52.66;45.45;67.68;;
82857;Laerm;72620;47.774;9.620;2023-12-20T01:34:41;50.01;45.03;64.86;;
82857;Laerm;72620;47.774;9.620;2023-12-20T01:37:09;47.50;45.51;58.59;;
82857;Laerm;72620;47.774;9.620;2023-12-20T01:39:36;55.30;46.57;69.97;;
82857;Laerm;72620;47.774;9.620;2023-12-20T01:42:04;51.38;47.07;55.26;;
82857;Laerm;72620;47.774;9.620;2023-12-20T01:44:31;56.20;50.50;67.76;;
82857;Laerm;72620;47.774;9.620;2023-12-20T01:46:58;51.62;47.89;60.13;;
82857;Laerm;72620;47.774;9.620;2023-12-20T01:49:26;48.39;47.26;50.23;;
82857;Laerm;72620;47.774;9.620;2023-12-20T01:51:54;48.14;46.87;51.85;;
82857;Laerm;72620;47.774;9.620;2023-12-20T01:54:22;47.98;46.77;50.25;;
82857;Laerm;72620;47.774;9.620;2023-12-20T01:56:51;47.98;46.87;50.28;;
82857;Laerm;72620;47.774;9.620;2023-12-20T01:59:21;50.04;46.96;60.76;;
82857;Laerm;72620;47.774;9.620;2023-12-20T02:01:49;49.89;46.80;59.59;;
82857;Laerm;72620;47.774;9.620;2023-12-20T02:04:16;52.70;46.67;67.46;;
82857;Laerm;72620;47.774;9.620;2023-12-20T02:06:46;56.62;45.85;68.65;;
82857;Laerm;72620;47.774;9.620;2023-12-20T02:09:15;47.12;45.76;60.15;;
82857;Laerm;72620;47.774;9.620;2023-12-20T02:11:43;52.05;45.76;65.90;;
82857;Laerm;72620;47.774;9.620;2023-12-20T02:14:10;50.90;45.65;64.82;;
82857;Laerm;72620;47.774;9.620;2023-12-20T02:16:40;47.09;45.35;49.44;;
82857;Laerm;72620;47.774;9.620;2023-12-20T02:19:14;47.08;45.56;48.90;;
82857;Laerm;72620;47.774;9.620;2023-12-20T02:21:42;52.85;45.70;65.82;;
82857;Laerm;72620;47.774;9.620;2023-12-20T02:24:09;51.97;45.68;65.30;;
82857;Laerm;72620;47.774;9.620;2023-12-20T02:26:36;52.42;45.33;66.00;;
82857;Laerm;72620;47.774;9.620;2023-12-20T02:29:04;52.06;45.48;65.56;;
82857;Laerm;72620;47.774;9.620;2023-12-20T02:31:31;51.76;45.70;65.28;;
82857;Laerm;72620;47.774;9.620;2023-12-20T02:33:58;50.82;45.65;63.85;;
82857;Laerm;72620;47.774;9.620;2023-12-20T02:36:26;47.07;45.64;49.17;;
82857;Laerm;72620;47.774;9.620;2023-12-20T02:38:53;47.08;45.54;49.62;;
82857;Laerm;72620;47.774;9.620;2023-12-20T02:41:20;52.88;45.57;66.43;;
82857;Laerm;72620;47.774;9.620;2023-12-20T02:43:47;47.11;45.61;49.44;;
82857;Laerm;72620;47.774;9.620;2023-12-20T02:46:17;53.19;45.84;69.52;;
82857;Laerm;72620;47.774;9.620;2023-12-20T02:48:45;54.03;46.06;69.08;;
82857;Laerm;72620;47.774;9.620;2023-12-20T02:51:12;48.06;46.89;50.65;;
82857;Laerm;72620;47.774;9.620;2023-12-20T02:53:39;56.10;47.84;70.28;;
82857;Laerm;72620;47.774;9.620;2023-12-20T02:56:06;55.26;52.34;64.65;;
82857;Laerm;72620;47.774;9.620;2023-12-20T02:58:33;55.13;47.94;68.51;;
82857;Laerm;72620;47.774;9.620;2023-12-20T03:01:00;57.95;47.59;70.94;;
82857;Laerm;72620;47.774;9.620;2023-12-20T03:03:28;55.98;46.92;68.34;;
82857;Laerm;72620;47.774;9.620;2023-12-20T03:05:55;49.68;46.98;60.93;;
82857;Laerm;72620;47.774;9.620;2023-12-20T03:08:25;56.64;47.10;69.02;;
82857;Laerm;72620;47.774;9.620;2023-12-20T03:10:56;51.99;47.06;66.00;;
82857;Laerm;72620;47.774;9.620;2023-12-20T03:13:23;48.50;46.97;56.53;;
82857;Laerm;72620;47.774;9.620;2023-12-20T03:15:51;53.02;46.77;65.14;;
82857;Laerm;72620;47.774;9.620;2023-12-20T03:18:18;47.60;45.77;61.64;;
82857;Laerm;72620;47.774;9.620;2023-12-20T03:20:45;59.27;45.96;72.67;;
82857;Laerm;72620;47.774;9.620;2023-12-20T03:23:14;48.50;45.95;58.17;;
82857;Laerm;72620;47.774;9.620;2023-12-20T03:25:41;53.14;45.90;66.82;;
82857;Laerm;72620;47.774;9.620;2023-12-20T03:28:08;53.09;46.02;63.54;;
82857;Laerm;72620;47.774;9.620;2023-12-20T03:30:35;55.89;46.35;67.18;;
82857;Laerm;72620;47.774;9.620;2023-12-20T03:33:02;54.14;46.05;68.53;;
82857;Laerm;72620;47.774;9.620;2023-12-20T03:35:30;56.78;45.67;68.46;;
82857;Laerm;72620;47.774;9.620;2023-12-20T03:37:57;51.52;45.92;64.83;;
82857;Laerm;72620;47.774;9.620;2023-12-20T03:40:26;55.57;45.92;66.45;;
82857;Laerm;72620;47.774;9.620;2023-12-20T03:42:54;54.02;45.98;66.69;;
82857;Laerm;72620;47.774;9.620;2023-12-20T03:45:21;60.42;46.47;71.56;;
82857;Laerm;72620;47.774;9.620;2023-12-20T03:47:48;52.99;46.16;68.79;;
82857;Laerm;72620;47.774;9.620;2023-12-20T03:50:16;53.26;45.91;66.80;;
82857;Laerm;72620;47.774;9.620;2023-12-20T03:52:43;52.79;46.36;66.48;;
82857;Laerm;72620;47.774;9.620;2023-12-20T03:55:10;57.05;47.81;67.88;;
82857;Laerm;72620;47.774;9.620;2023-12-20T03:57:37;53.94;47.64;69.18;;
82857;Laerm;72620;47.774;9.620;2023-12-20T04:00:07;52.75;48.38;64.72;;
82857;Laerm;72620;47.774;9.620;2023-12-20T04:02:38;57.74;49.44;67.60;;
82857;Laerm;72620;47.774;9.620;2023-12-20T04:05:06;58.07;52.22;68.00;;
82857;Laerm;72620;47.774;9.620;2023-12-20T04:07:35;61.86;50.36;72.18;;
82857;Laerm;72620;47.774;9.620;2023-12-20T04:10:04;57.78;50.18;68.50;;
82857;Laerm;72620;47.774;9.620;2023-12-20T04:12:32;61.73;49.49;73.19;;
82857;Laerm;72620;47.774;9.620;2023-12-20T04:14:59;59.53;49.76;68.86;;
82857;Laerm;72620;47.774;9.620;2023-12-20T04:17:26;63.73;50.33;72.27;;
82857;Laerm;72620;47.774;9.620;2023-12-20T04:19:54;63.40;50.28;71.87;;
82857;Laerm;72620;47.774;9.620;2023-12-20T04:22:22;59.07;48.77;71.36;;
82857;Laerm;72620;47.774;9.620;2023-12-20T04:24:49;56.97;48.90;67.81;;
82857;Laerm;72620;47.774;9.620;2023-12-20T04:27:19;62.80;50.21;72.28;;
82857;Laerm;72620;47.774;9.620;2023-12-20T04:29:46;61.07;48.56;69.92;;
82857;Laerm;72620;47.774;9.620;2023-12-20T04:32:13;59.86;48.56;69.40;;
82857;Laerm;72620;47.774;9.620;2023-12-20T04:34:40;62.30;49.53;69.27;;
82857;Laerm;72620;47.774;9.620;2023-12-20T04:37:07;63.91;50.39;69.89;;
82857;Laerm;72620;47.774;9.620;2023-12-20T04:39:34;61.11;50.50;71.26;;
82857;Laerm;72620;47.774;9.620;2023-12-20T04:42:02;63.06;49.93;73.77;;
82857;Laerm;72620;47.774;9.620;2023-12-20T04:44:29;60.03;50.62;72.07;;
82857;Laerm;72620;47.774;9.620;2023-12-20T04:46:56;64.23;50.71;71.54;;
82857;Laerm;72620;47.774;9.620;2023-12-20T04:49:23;59.90;50.63;71.00;;
82857;Laerm;72620;47.774;9.620;2023-12-20T04:51:51;63.14;50.93;72.46;;
82857;Laerm;72620;47.774;9.620;2023-12-20T04:54:18;63.16;51.15;70.56;;
82857;Laerm;72620;47.774;9.620;2023-12-20T04:56:45;62.47;50.73;73.34;;
82857;Laerm;72620;47.774;9.620;2023-12-20T04:59:12;61.75;52.07;69.34;;
82857;Laerm;72620;47.774;9.620;2023-12-20T05:01:40;61.19;52.58;69.84;;
82857;Laerm;72620;47.774;9.620;2023-12-20T05:04:07;63.54;52.08;71.07;;
82857;Laerm;72620;47.774;9.620;2023-12-20T05:06:36;62.94;51.77;73.29;;
82857;Laerm;72620;47.774;9.620;2023-12-20T05:09:03;65.65;53.82;73.09;;
82857;Laerm;72620;47.774;9.620;2023-12-20T05:11:30;62.79;52.09;69.53;;
82857;Laerm;72620;47.774;9.620;2023-12-20T05:13:57;63.30;52.94;71.98;;
82857;Laerm;72620;47.774;9.620;2023-12-20T05:16:24;64.38;52.48;73.26;;
82857;Laerm;72620;47.774;9.620;2023-12-20T05:18:51;62.42;52.35;70.66;;
82857;Laerm;72620;47.774;9.620;2023-12-20T05:21:19;64.17;52.23;72.26;;
82857;Laerm;72620;47.774;9.620;2023-12-20T05:23:47;63.83;51.49;74.27;;
82857;Laerm;72620;47.774;9.620;2023-12-20T05:26:14;65.18;52.57;71.82;;
82857;Laerm;72620;47.774;9.620;2023-12-20T05:28:41;61.16;51.92;68.71;;
82857;Laerm;72620;47.774;9.620;2023-12-20T05:31:08;65.93;54.34;70.87;;
82857;Laerm;72620;47.774;9.620;2023-12-20T05:33:36;64.20;51.25;74.70;;
82857;Laerm;72620;47.774;9.620;2023-12-20T05:36:03;65.34;52.87;72.50;;
82857;Laerm;72620;47.774;9.620;2023-12-20T05:38:31;62.98;51.68;69.26;;
82857;Laerm;72620;47.774;9.620;2023-12-20T05:40:58;66.37;52.33;72.93;;
82857;Laerm;72620;47.774;9.620;2023-12-20T05:43:25;63.13;52.49;71.04;;
82857;Laerm;72620;47.774;9.620;2023-12-20T05:45:52;65.61;51.43;74.61;;
82857;Laerm;72620;47.774;9.620;2023-12-20T05:48:19;67.20;53.66;74.82;;
82857;Laerm;72620;47.774;9.620;2023-12-20T05:50:46;65.19;51.05;70.49;;
82857;Laerm;72620;47.774;9.620;2023-12-20T05:53:13;68.11;57.61;73.31;;
82857;Laerm;72620;47.774;9.620;2023-12-20T05:55:40;63.93;52.33;69.80;;
82857;Laerm;72620;47.774;9.620;2023-12-20T05:58:08;66.60;51.83;74.17;;
82857;Laerm;72620;47.774;9.620;2023-12-20T06:00:36;63.88;51.48;73.52;;
82857;Laerm;72620;47.774;9.620;2023-12-20T06:03:03;65.02;51.24;71.05;;
82857;Laerm;72620;47.774;9.620;2023-12-20T06:05:32;62.95;51.38;69.56;;
82857;Laerm;72620;47.774;9.620;2023-12-20T06:07:59;66.41;54.66;73.86;;
82857;Laerm;72620;47.774;9.620;2023-12-20T06:10:29;64.87;51.30;73.69;;
82857;Laerm;72620;47.774;9.620;2023-12-20T06:12:57;65.05;52.16;70.62;;
82857;Laerm;72620;47.774;9.620;2023-12-20T06:15:25;65.16;50.87;73.27;;
82857;Laerm;72620;47.774;9.620;2023-12-20T06:17:53;64.36;49.85;70.42;;
82857;Laerm;72620;47.774;9.620;2023-12-20T06:20:20;66.44;50.18;74.34;;
82857;Laerm;72620;47.774;9.620;2023-12-20T06:22:47;63.96;52.45;70.59;;
82857;Laerm;72620;47.774;9.620;2023-12-20T06:25:14;64.54;54.17;70.47;;
82857;Laerm;72620;47.774;9.620;2023-12-20T06:27:41;63.84;52.61;68.41;;
82857;Laerm;72620;47.774;9.620;2023-12-20T06:30:09;66.77;53.33;74.02;;
82857;Laerm;72620;47.774;9.620;2023-12-20T06:32:36;63.98;50.96;69.98;;
82857;Laerm;72620;47.774;9.620;2023-12-20T06:35:05;65.61;51.64;76.62;;
82857;Laerm;72620;47.774;9.620;2023-12-20T06:37:33;64.83;50.27;72.37;;
82857;Laerm;72620;47.774;9.620;2023-12-20T06:40:01;64.61;50.54;70.80;;
82857;Laerm;72620;47.774;9.620;2023-12-20T06:42:28;63.95;49.60;74.40;;
82857;Laerm;72620;47.774;9.620;2023-12-20T06:44:58;64.78;51.24;72.58;;
82857;Laerm;72620;47.774;9.620;2023-12-20T06:47:25;62.61;49.51;71.19;;
82857;Laerm;72620;47.774;9.620;2023-12-20T06:49:53;64.72;50.36;71.18;;
82857;Laerm;72620;47.774;9.620;2023-12-20T06:52:21;64.90;52.68;73.67;;
82857;Laerm;72620;47.774;9.620;2023-12-20T06:54:48;66.30;53.60;74.42;;
82857;Laerm;72620;47.774;9.620;2023-12-20T06:57:15;65.63;52.34;73.03;;
82857;Laerm;72620;47.774;9.620;2023-12-20T06:59:42;62.88;48.59;70.14;;
82857;Laerm;72620;47.774;9.620;2023-12-20T07:02:10;61.84;49.03;69.60;;
82857;Laerm;72620;47.774;9.620;2023-12-20T07:04:41;65.59;50.46;71.88;;
82857;Laerm;72620;47.774;9.620;2023-12-20T07:07:08;63.78;49.42;69.91;;
82857;Laerm;72620;47.774;9.620;2023-12-20T07:09:36;63.96;49.44;70.61;;
82857;Laerm;72620;47.774;9.620;2023-12-20T07:12:04;64.39;52.00;69.87;;
82857;Laerm;72620;47.774;9.620;2023-12-20T07:14:31;63.93;49.14;72.01;;
82857;Laerm;72620;47.774;9.620;2023-12-20T07:16:58;64.13;50.95;70.19;;
82857;Laerm;72620;47.774;9.620;2023-12-20T07:19:25;64.20;51.08;71.11;;
82857;Laerm;72620;47.774;9.620;2023-12-20T07:21:53;64.68;50.06;71.62;;
82857;Laerm;72620;47.774;9.620;2023-12-20T07:24:20;62.56;50.38;67.87;;
82857;Laerm;72620;47.774;9.620;2023-12-20T07:26:47;65.28;51.53;79.58;;
82857;Laerm;72620;47.774;9.620;2023-12-20T07:29:14;65.14;53.17;71.18;;
82857;Laerm;72620;47.774;9.620;2023-12-20T07:31:41;64.57;51.87;72.26;;
82857;Laerm;72620;47.774;9.620;2023-12-20T07:34:08;64.26;51.00;73.01;;
82857;Laerm;72620;47.774;9.620;2023-12-20T07:36:36;66.50;51.57;73.25;;
82857;Laerm;72620;47.774;9.620;2023-12-20T07:39:03;63.09;51.24;69.99;;
82857;Laerm;72620;47.774;9.620;2023-12-20T07:41:30;63.07;49.45;71.55;;
82857;Laerm;72620;47.774;9.620;2023-12-20T07:43:57;62.82;50.70;69.66;;
82857;Laerm;72620;47.774;9.620;2023-12-20T07:46:25;65.73;52.40;72.33;;
82857;Laerm;72620;47.774;9.620;2023-12-20T07:48:53;65.69;51.65;79.85;;
82857;Laerm;72620;47.774;9.620;2023-12-20T07:51:20;63.31;50.43;71.97;;
82857;Laerm;72620;47.774;9.620;2023-12-20T07:53:48;64.64;50.66;72.91;;
82857;Laerm;72620;47.774;9.620;2023-12-20T07:56:19;64.77;51.75;70.41;;
82857;Laerm;72620;47.774;9.620;2023-12-20T07:58:46;63.75;50.59;71.14;;
82857;Laerm;72620;47.774;9.620;2023-12-20T08:01:19;66.62;49.89;74.21;;
82857;Laerm;72620;47.774;9.620;2023-12-20T08:03:49;63.95;51.88;71.32;;
82857;Laerm;72620;47.774;9.620;2023-12-20T08:06:18;66.14;49.87;78.43;;
82857;Laerm;72620;47.774;9.620;2023-12-20T08:08:45;65.01;50.96;70.46;;
82857;Laerm;72620;47.774;9.620;2023-12-20T08:11:20;66.01;54.87;72.43;;
82857;Laerm;72620;47.774;9.620;2023-12-20T08:13:47;64.36;51.26;73.21;;
82857;Laerm;72620;47.774;9.620;2023-12-20T08:16:15;65.26;51.00;70.97;;
82857;Laerm;72620;47.774;9.620;2023-12-20T08:18:44;64.25;50.42;71.55;;
82857;Laerm;72620;47.774;9.620;2023-12-20T08:21:11;66.52;49.70;74.69;;
82857;Laerm;72620;47.774;9.620;2023-12-20T08:23:39;65.49;54.12;72.57;;
82857;Laerm;72620;47.774;9.620;2023-12-20T08:26:08;65.38;55.51;73.98;;
82857;Laerm;72620;47.774;9.620;2023-12-20T08:28:36;65.11;52.07;73.01;;
82857;Laerm;72620;47.774;9.620;2023-12-20T08:31:04;65.92;52.06;73.18;;
82857;Laerm;72620;47.774;9.620;2023-12-20T08:33:31;63.22;53.09;70.22;;
82857;Laerm;72620;47.774;9.620;2023-12-20T08:35:58;66.18;54.29;78.64;;
82857;Laerm;72620;47.774;9.620;2023-12-20T08:38:26;66.56;54.64;73.95;;
82857;Laerm;72620;47.774;9.620;2023-12-20T08:40:53;64.34;52.64;71.17;;
82857;Laerm;72620;47.774;9.620;2023-12-20T08:43:20;66.36;50.37;75.45;;
82857;Laerm;72620;47.774;9.620;2023-12-20T08:45:47;61.28;48.96;71.12;;
82857;Laerm;72620;47.774;9.620;2023-12-20T08:48:14;64.49;49.93;71.18;;
82857;Laerm;72620;47.774;9.620;2023-12-20T08:50:42;64.83;51.30;75.32;;
82857;Laerm;72620;47.774;9.620;2023-12-20T08:53:09;65.97;50.39;73.66;;
82857;Laerm;72620;47.774;9.620;2023-12-20T08:55:37;65.65;50.63;79.60;;
82857;Laerm;72620;47.774;9.620;2023-12-20T08:58:04;65.45;51.54;73.77;;
82857;Laerm;72620;47.774;9.620;2023-12-20T09:00:34;64.54;50.57;71.12;;
82857;Laerm;72620;47.774;9.620;2023-12-20T09:03:02;65.10;50.01;78.16;;
82857;Laerm;72620;47.774;9.620;2023-12-20T09:05:29;60.68;48.60;69.19;;
82857;Laerm;72620;47.774;9.620;2023-12-20T09:07:57;63.49;48.99;69.56;;
82857;Laerm;72620;47.774;9.620;2023-12-20T09:10:24;66.16;53.06;76.31;;
82857;Laerm;72620;47.774;9.620;2023-12-20T09:12:52;65.30;51.75;74.24;;
82857;Laerm;72620;47.774;9.620;2023-12-20T09:15:24;64.38;50.59;75.77;;
82857;Laerm;72620;47.774;9.620;2023-12-20T09:17:53;62.78;52.81;74.61;;
82857;Laerm;72620;47.774;9.620;2023-12-20T09:20:20;65.29;52.83;72.26;;
82857;Laerm;72620;47.774;9.620;2023-12-20T09:22:47;66.33;58.54;74.51;;
82857;Laerm;72620;47.774;9.620;2023-12-20T09:25:15;66.93;59.27;79.29;;
82857;Laerm;72620;47.774;9.620;2023-12-20T09:27:43;63.95;52.62;72.48;;
82857;Laerm;72620;47.774;9.620;2023-12-20T09:30:12;63.72;53.95;76.85;;
82857;Laerm;72620;47.774;9.620;2023-12-20T09:32:51;65.96;53.80;77.03;;
82857;Laerm;72620;47.774;9.620;2023-12-20T09:35:18;65.85;53.18;73.25;;
82857;Laerm;72620;47.774;9.620;2023-12-20T09:37:45;64.64;53.03;69.99;;
82857;Laerm;72620;47.774;9.620;2023-12-20T09:40:14;64.55;54.12;70.96;;
82857;Laerm;72620;47.774;9.620;2023-12-20T09:42:57;65.43;52.20;73.99;;
82857;Laerm;72620;47.774;9.620;2023-12-20T09:45:25;64.21;56.38;74.41;;
82857;Laerm;72620;47.774;9.620;2023-12-20T09:47:53;63.82;56.20;68.49;;
82857;Laerm;72620;47.774;9.620;2023-12-20T09:50:22;65.15;56.06;75.05;;
82857;Laerm;72620;47.774;9.620;2023-12-20T09:52:52;63.80;56.09;69.95;;
82857;Laerm;72620;47.774;9.620;2023-12-20T09:55:21;65.56;51.47;71.90;;
82857;Laerm;72620;47.774;9.620;2023-12-20T09:57:49;63.97;51.91;69.38;;
82857;Laerm;72620;47.774;9.620;2023-12-20T10:00:17;66.31;52.55;74.61;;
82857;Laerm;72620;47.774;9.620;2023-12-20T10:02:58;64.45;51.00;74.71;;
82857;Laerm;72620;47.774;9.620;2023-12-20T10:05:33;64.20;54.79;71.41;;
82857;Laerm;72620;47.774;9.620;2023-12-20T10:08:01;65.32;53.54;71.62;;
82857;Laerm;72620;47.774;9.620;2023-12-20T10:10:29;65.03;53.89;73.23;;
82857;Laerm;72620;47.774;9.620;2023-12-20T10:13:12;63.71;51.03;70.22;;
82857;Laerm;72620;47.774;9.620;2023-12-20T10:15:40;66.08;51.89;72.89;;
82857;Laerm;72620;47.774;9.620;2023-12-20T10:18:09;62.89;51.11;69.22;;
82857;Laerm;72620;47.774;9.620;2023-12-20T10:20:40;64.91;49.24;73.06;;
82857;Laerm;72620;47.774;9.620;2023-12-20T10:23:08;63.57;51.54;72.00;;
82857;Laerm;72620;47.774;9.620;2023-12-20T10:25:35;63.36;52.22;70.21;;
82857;Laerm;72620;47.774;9.620;2023-12-20T10:28:16;65.49;54.58;72.47;;
82857;Laerm;72620;47.774;9.620;2023-12-20T10:30:50;64.41;52.13;72.73;;
82857;Laerm;72620;47.774;9.620;2023-12-20T10:33:28;64.96;52.57;71.63;;
82857;Laerm;72620;47.774;9.620;2023-12-20T10:35:56;64.10;52.19;72.12;;
82857;Laerm;72620;47.774;9.620;2023-12-20T10:38:23;65.67;55.71;72.78;;
82857;Laerm;72620;47.774;9.620;2023-12-20T10:40:57;65.19;53.22;82.81;;
82857;Laerm;72620;47.774;9.620;2023-12-20T10:43:28;63.42;53.81;70.88;;
82857;Laerm;72620;47.774;9.620;2023-12-20T10:45:59;63.66;54.84;71.72;;
82857;Laerm;72620;47.774;9.620;2023-12-20T10:48:27;65.53;55.05;73.42;;
82857;Laerm;72620;47.774;9.620;2023-12-20T10:50:58;63.09;53.28;69.79;;
82857;Laerm;72620;47.774;9.620;2023-12-20T10:53:25;64.65;50.56;71.42;;
82857;Laerm;72620;47.774;9.620;2023-12-20T10:55:55;63.37;52.28;70.43;;
82857;Laerm;72620;47.774;9.620;2023-12-20T10:58:29;66.87;59.84;74.46;;
82857;Laerm;72620;47.774;9.620;2023-12-20T11:01:01;63.79;51.06;71.30;;
82857;Laerm;72620;47.774;9.620;2023-12-20T11:03:36;64.01;51.81;69.78;;
82857;Laerm;72620;47.774;9.620;2023-12-20T11:09:08;65.12;51.15;77.74;;
82857;Laerm;72620;47.774;9.620;2023-12-20T11:11:55;65.32;50.89;74.75;;
82857;Laerm;72620;47.774;9.620;2023-12-20T11:14:34;62.69;51.71;70.65;;
82857;Laerm;72620;47.774;9.620;2023-12-20T11:17:07;63.15;51.20;69.33;;
82857;Laerm;72620;47.774;9.620;2023-12-20T11:22:32;61.54;49.90;72.22;;
82857;Laerm;72620;47.774;9.620;2023-12-20T11:25:09;64.98;52.06;75.56;;
82857;Laerm;72620;47.774;9.620;2023-12-20T11:27:42;64.78;50.58;70.76;;
82857;Laerm;72620;47.774;9.620;2023-12-20T11:30:14;64.33;52.79;71.06;;
82857;Laerm;72620;47.774;9.620;2023-12-20T11:32:41;64.53;50.40;71.73;;
82857;Laerm;72620;47.774;9.620;2023-12-20T11:37:40;63.46;52.85;69.40;;
82857;Laerm;72620;47.774;9.620;2023-12-20T11:40:16;64.13;52.92;69.69;;
82857;Laerm;72620;47.774;9.620;2023-12-20T11:42:49;63.02;51.20;68.89;;
82857;Laerm;72620;47.774;9.620;2023-12-20T11:45:20;62.43;50.80;69.07;;
82857;Laerm;72620;47.774;9.620;2023-12-20T11:47:50;63.91;50.42;72.62;;
82857;Laerm;72620;47.774;9.620;2023-12-20T11:50:18;64.52;51.52;69.80;;
82857;Laerm;72620;47.774;9.620;2023-12-20T11:52:48;65.20;51.83;72.75;;
82857;Laerm;72620;47.774;9.620;2023-12-20T11:55:15;64.24;51.24;70.74;;
82857;Laerm;72620;47.774;9.620;2023-12-20T11:57:44;62.89;50.82;70.50;;
82857;Laerm;72620;47.774;9.620;2023-12-20T12:00:14;63.49;52.53;69.73;;
82857;Laerm;72620;47.774;9.620;2023-12-20T12:02:41;66.03;55.21;72.22;;
82857;Laerm;72620;47.774;9.620;2023-12-20T12:05:12;62.70;50.56;69.94;;
82857;Laerm;72620;47.774;9.620;2023-12-20T12:07:39;63.31;49.97;71.32;;
82857;Laerm;72620;47.774;9.620;2023-12-20T12:10:07;64.44;50.80;72.01;;
82857;Laerm;72620;47.774;9.620;2023-12-20T12:12:35;63.51;50.12;69.98;;
82857;Laerm;72620;47.774;9.620;2023-12-20T12:15:03;75.22;55.33;94.89;;
82857;Laerm;72620;47.774;9.620;2023-12-20T12:17:30;64.67;52.12;69.44;;
82857;Laerm;72620;47.774;9.620;2023-12-20T12:20:05;64.73;51.45;71.23;;
82857;Laerm;72620;47.774;9.620;2023-12-20T12:22:33;65.43;51.02;81.75;;
82857;Laerm;72620;47.774;9.620;2023-12-20T12:25:11;63.33;49.85;71.70;;
82857;Laerm;72620;47.774;9.620;2023-12-20T12:27:43;64.12;51.63;69.96;;
82857;Laerm;72620;47.774;9.620;2023-12-20T12:30:11;62.02;50.15;68.77;;
82857;Laerm;72620;47.774;9.620;2023-12-20T12:32:40;62.38;51.25;68.73;;
82857;Laerm;72620;47.774;9.620;2023-12-20T12:35:08;64.10;50.88;72.68;;
82857;Laerm;72620;47.774;9.620;2023-12-20T12:37:40;63.11;50.26;70.03;;
82857;Laerm;72620;47.774;9.620;2023-12-20T12:40:16;61.31;50.66;68.41;;
82857;Laerm;72620;47.774;9.620;2023-12-20T12:42:46;64.23;54.98;71.52;;
82857;Laerm;72620;47.774;9.620;2023-12-20T12:45:14;63.35;51.25;71.16;;
82857;Laerm;72620;47.774;9.620;2023-12-20T12:47:41;63.43;52.36;71.98;;
82857;Laerm;72620;47.774;9.620;2023-12-20T12:50:09;63.03;52.01;70.50;;
82857;Laerm;72620;47.774;9.620;2023-12-20T12:52:37;62.50;51.77;69.34;;
82857;Laerm;72620;47.774;9.620;2023-12-20T12:55:04;64.25;51.48;71.31;;
82857;Laerm;72620;47.774;9.620;2023-12-20T12:57:33;63.00;53.12;69.03;;
82857;Laerm;72620;47.774;9.620;2023-12-20T13:00:01;62.96;52.67;68.91;;
82857;Laerm;72620;47.774;9.620;2023-12-20T13:02:29;62.46;50.88;71.76;;
82857;Laerm;72620;47.774;9.620;2023-12-20T13:04:57;65.53;52.98;76.27;;
82857;Laerm;72620;47.774;9.620;2023-12-20T13:07:25;63.13;51.72;72.09;;
82857;Laerm;72620;47.774;9.620;2023-12-20T13:09:52;63.19;52.50;69.40;;
82857;Laerm;72620;47.774;9.620;2023-12-20T13:12:19;61.91;50.78;69.43;;
82857;Laerm;72620;47.774;9.620;2023-12-20T13:14:48;62.81;51.11;76.79;;
82857;Laerm;72620;47.774;9.620;2023-12-20T13:17:17;62.70;51.21;70.87;;
82857;Laerm;72620;47.774;9.620;2023-12-20T13:19:44;62.87;50.16;70.47;;
82857;Laerm;72620;47.774;9.620;2023-12-20T13:22:12;63.46;51.70;71.02;;
82857;Laerm;72620;47.774;9.620;2023-12-20T13:24:39;63.41;53.42;68.74;;
82857;Laerm;72620;47.774;9.620;2023-12-20T13:27:07;63.74;53.27;68.96;;
82857;Laerm;72620;47.774;9.620;2023-12-20T13:29:35;63.68;52.00;71.21;;
82857;Laerm;72620;47.774;9.620;2023-12-20T13:32:06;62.76;52.19;75.94;;
82857;Laerm;72620;47.774;9.620;2023-12-20T13:34:33;64.46;51.21;73.33;;
82857;Laerm;72620;47.774;9.620;2023-12-20T13:37:01;61.86;51.00;69.66;;
82857;Laerm;72620;47.774;9.620;2023-12-20T13:39:28;62.03;51.87;68.11;;
82857;Laerm;72620;47.774;9.620;2023-12-20T13:41:55;63.43;51.32;69.25;;
82857;Laerm;72620;47.774;9.620;2023-12-20T13:44:26;64.25;49.82;73.15;;
82857;Laerm;72620;47.774;9.620;2023-12-20T13:46:53;61.76;49.84;68.61;;
82857;Laerm;72620;47.774;9.620;2023-12-20T13:49:20;60.56;49.83;68.04;;
82857;Laerm;72620;47.774;9.620;2023-12-20T13:51:54;62.39;49.80;70.77;;
82857;Laerm;72620;47.774;9.620;2023-12-20T13:54:21;63.04;52.48;68.36;;
82857;Laerm;72620;47.774;9.620;2023-12-20T13:56:49;63.27;51.99;73.34;;
82857;Laerm;72620;47.774;9.620;2023-12-20T13:59:34;61.83;51.25;68.39;;